EGGD

Bristol International Airport

Bristol, United Kingdom
METAR EGGD 222120Z AUTO 26014KT 9999 BKN009 OVC014 09/07 Q1013
Observed Flight Rules
Apr-22 @ 21:20 UTC (26 minutes ago) Instrument Flight Rules
Wind Visibility Clouds
260° at 14 knots 10,000+ meters
  • Broken at 900' AGL
  • Overcast at 1,400' AGL
Temperatures Readings
Current 9°C / 48°F
Dewpoint 7°C / 45°F
Humidity 87%
Altimeter 29.91" Hg
Pressure 1013 hPa
Elevation 189
METAR EGGD 222120Z AUTO 26014KT 9999 BKN009 OVC014 09/07 Q1013
Observed Flight Rules
Apr-22 @ 21:20 UTC
(26 minutes ago)
IFR
Wind Visibility
260° at 14 knots 10,000+ meters
Clouds
  • Broken at 900' AGL
  • Overcast at 1,400' AGL
Temperature Dewpoint
9°C / 48°F 7°C / 45°F
Humidity Altimeter Pressure
87% 29.91" Hg 1013 hPa